Time,TemperatureF,DewpointF,PressureIn,WindDirection,WindDirectionDegrees,WindSpeedMPH,WindSpeedGustMPH,Humidity,HourlyPrecipIn,Conditions,Clouds,dailyrainin,SolarRadiationWatts/m^2,SoftwareType,DateUTC
2013-10-05 00:02:00,50.0,49.0,-100.00,NE,43,3.0,5.0,95,0.00,,,0.01,0.000000,,2013-10-05 07:02:00,
2013-10-05 00:12:00,50.0,49.0,-100.00,NE,43,3.0,5.0,95,0.00,,,0.01,0.000000,,2013-10-05 07:12:00,
2013-10-05 00:42:00,50.0,47.0,-100.00,NE,38,4.0,6.0,90,0.00,,,0.01,0.000000,,2013-10-05 07:42:00,
2013-10-05 00:52:00,50.0,47.0,-100.00,NE,38,4.0,6.0,90,0.00,,,0.01,0.000000,,2013-10-05 07:52:00,
2013-10-05 01:02:00,50.0,47.0,-100.00,NE,38,4.0,6.0,90,0.00,,,0.01,0.000000,,2013-10-05 08:02:00,
2013-10-05 01:12:00,50.0,47.0,-100.00,NE,38,4.0,6.0,90,0.00,,,0.01,0.000000,,2013-10-05 08:12:00,
2013-10-05 01:42:00,50.0,46.0,-100.00,NE,48,3.0,5.0,85,0.00,,,0.01,0.000000,,2013-10-05 08:42:00,
2013-10-05 01:52:00,50.0,46.0,-100.00,NE,48,3.0,5.0,85,0.00,,,0.01,0.000000,,2013-10-05 08:52:00,
2013-10-05 02:02:00,50.0,46.0,-100.00,NE,48,3.0,5.0,85,0.00,,,0.01,0.000000,,2013-10-05 09:02:00,
2013-10-05 02:11:00,50.0,46.0,-100.00,NE,48,3.0,5.0,85,0.00,,,0.01,0.000000,,2013-10-05 09:11:00,
2013-10-05 02:43:00,49.0,44.0,-100.00,NE,39,4.0,5.0,84,0.00,,,0.01,0.000000,,2013-10-05 09:43:00,
2013-10-05 02:54:00,49.0,44.0,-100.00,NE,39,4.0,5.0,84,0.00,,,0.01,0.000000,,2013-10-05 09:54:00,
2013-10-05 03:03:00,49.0,44.0,-100.00,NE,39,4.0,5.0,84,0.00,,,0.01,0.000000,,2013-10-05 10:03:00,
2013-10-05 03:12:00,49.0,44.0,-100.00,NE,39,4.0,5.0,84,0.00,,,0.01,0.000000,,2013-10-05 10:12:00,
2013-10-05 03:43:00,47.0,44.0,-100.00,NE,42,3.0,5.0,90,0.00,,,0.01,0.000000,,2013-10-05 10:43:00,
2013-10-05 03:53:00,47.0,44.0,-100.00,NE,42,3.0,5.0,90,0.00,,,0.01,0.000000,,2013-10-05 10:53:00,
2013-10-05 04:02:00,47.0,44.0,-100.00,NE,42,3.0,5.0,90,0.00,,,0.01,0.000000,,2013-10-05 11:02:00,
2013-10-05 04:11:00,47.0,44.0,-100.00,NE,42,3.0,5.0,90,0.00,,,0.01,0.000000,,2013-10-05 11:11:00,
2013-10-05 04:43:00,46.0,44.0,-100.00,NE,39,4.0,5.0,93,0.00,,,0.01,0.000000,,2013-10-05 11:43:00,
2013-10-05 04:52:00,46.0,44.0,-100.00,NE,39,4.0,5.0,93,0.00,,,0.01,0.000000,,2013-10-05 11:52:00,
2013-10-05 05:01:00,46.0,44.0,-100.00,NE,39,4.0,5.0,93,0.00,,,0.01,0.000000,,2013-10-05 12:01:00,
2013-10-05 05:12:00,46.0,44.0,-100.00,NE,39,4.0,5.0,93,0.00,,,0.01,0.000000,,2013-10-05 12:12:00,
2013-10-05 05:42:00,47.0,44.0,-100.00,NE,40,4.0,5.0,89,0.00,,,0.01,0.000000,,2013-10-05 12:42:00,
2013-10-05 05:53:00,47.0,44.0,-100.00,NE,40,4.0,5.0,89,0.00,,,0.01,0.000000,,2013-10-05 12:53:00,
2013-10-05 06:02:00,47.0,44.0,-100.00,NE,40,4.0,5.0,89,0.00,,,0.01,0.000000,,2013-10-05 13:02:00,
2013-10-05 06:12:00,47.0,44.0,-100.00,NE,40,4.0,5.0,89,0.00,,,0.01,0.000000,,2013-10-05 13:12:00,
2013-10-05 06:42:00,47.0,45.0,-100.00,NE,47,3.0,6.0,91,0.00,,,0.01,0.000000,,2013-10-05 13:42:00,
2013-10-05 06:52:00,47.0,45.0,-100.00,NE,47,3.0,6.0,91,0.00,,,0.01,0.000000,,2013-10-05 13:52:00,
2013-10-05 07:02:00,47.0,45.0,-100.00,NE,47,3.0,6.0,91,0.00,,,0.01,0.000000,,2013-10-05 14:02:00,
2013-10-05 07:11:00,47.0,45.0,-100.00,NE,47,3.0,6.0,91,0.00,,,0.01,0.000000,,2013-10-05 14:11:00,
2013-10-05 07:42:00,47.0,44.0,-100.00,NE,56,3.0,5.0,89,0.00,,,0.01,0.000000,,2013-10-05 14:42:00,
2013-10-05 07:52:00,47.0,44.0,-100.00,NE,56,3.0,5.0,89,0.00,,,0.01,0.000000,,2013-10-05 14:52:00,
2013-10-05 08:02:00,47.0,44.0,-100.00,NE,56,3.0,5.0,89,0.00,,,0.01,0.000000,,2013-10-05 15:02:00,
2013-10-05 08:12:00,47.0,44.0,-100.00,NE,56,3.0,5.0,89,0.00,,,0.01,0.000000,,2013-10-05 15:12:00,
2013-10-05 08:13:00,47.0,45.0,-100.00,NE,50,3.0,5.0,93,0.00,,,0.01,14.000000,,2013-10-05 15:13:00,
2013-10-05 08:44:00,47.0,45.0,-100.00,NE,50,3.0,5.0,93,0.00,,,0.01,14.000000,,2013-10-05 15:44:00,
2013-10-05 08:53:00,47.0,45.0,-100.00,NE,50,3.0,5.0,93,0.00,,,0.01,14.000000,,2013-10-05 15:53:00,
2013-10-05 09:03:00,47.0,45.0,-100.00,NE,50,3.0,5.0,93,0.00,,,0.01,14.000000,,2013-10-05 16:03:00,
2013-10-05 09:43:00,49.0,44.0,-100.00,NE,39,4.0,5.0,82,0.00,,,0.00,45.000000,,2013-10-05 16:43:00,
2013-10-05 09:53:00,49.0,44.0,-100.00,NE,39,4.0,5.0,82,0.00,,,0.00,45.000000,,2013-10-05 16:53:00,
2013-10-05 10:02:00,49.0,44.0,-100.00,NE,39,4.0,5.0,82,0.00,,,0.00,45.000000,,2013-10-05 17:02:00,
2013-10-05 10:12:00,49.0,44.0,-100.00,NE,39,4.0,5.0,82,0.00,,,0.00,45.000000,,2013-10-05 17:12:00,
2013-10-05 10:42:00,55.0,47.0,-100.00,NE,47,3.0,5.0,74,0.00,,,0.00,458.000000,,2013-10-05 17:42:00,
2013-10-05 10:52:00,55.0,47.0,-100.00,NE,47,3.0,5.0,74,0.00,,,0.00,458.000000,,2013-10-05 17:52:00,
2013-10-05 11:02:00,55.0,47.0,-100.00,NE,47,3.0,5.0,74,0.00,,,0.00,458.000000,,2013-10-05 18:02:00,
2013-10-05 11:12:00,55.0,47.0,-100.00,NE,47,3.0,5.0,74,0.00,,,0.00,458.000000,,2013-10-05 18:12:00,
2013-10-05 11:42:00,62.0,51.0,-100.00,NNE,32,3.0,4.0,68,0.00,,,0.00,635.000000,,2013-10-05 18:42:00,
2013-10-05 11:52:00,62.0,51.0,-100.00,NNE,32,3.0,4.0,68,0.00,,,0.00,635.000000,,2013-10-05 18:52:00,
2013-10-05 12:01:00,62.0,51.0,-100.00,NNE,32,3.0,4.0,68,0.00,,,0.00,635.000000,,2013-10-05 19:01:00,
2013-10-05 12:11:00,62.0,51.0,-100.00,NNE,32,3.0,4.0,68,0.00,,,0.00,635.000000,,2013-10-05 19:11:00,
2013-10-05 12:42:00,72.0,46.0,-100.00,ESE,120,2.0,4.0,40,0.00,,,0.00,727.000000,,2013-10-05 19:42:00,
2013-10-05 12:52:00,72.0,46.0,-100.00,ESE,120,2.0,4.0,40,0.00,,,0.00,727.000000,,2013-10-05 19:52:00,
2013-10-05 13:02:00,72.0,46.0,-100.00,ESE,120,2.0,4.0,40,0.00,,,0.00,727.000000,,2013-10-05 20:02:00,
2013-10-05 13:42:00,74.0,42.0,-100.00,SSW,205,3.0,5.0,32,0.00,,,0.00,779.000000,,2013-10-05 20:42:00,
2013-10-05 13:52:00,74.0,42.0,-100.00,SSW,205,3.0,5.0,32,0.00,,,0.00,779.000000,,2013-10-05 20:52:00,
2013-10-05 14:01:00,74.0,42.0,-100.00,SSW,205,3.0,5.0,32,0.00,,,0.00,779.000000,,2013-10-05 21:01:00,
2013-10-05 14:44:00,73.0,46.0,-100.00,WSW,246,3.0,5.0,38,0.00,,,0.00,751.000000,,2013-10-05 21:44:00,
2013-10-05 14:54:00,73.0,46.0,-100.00,WSW,246,3.0,5.0,38,0.00,,,0.00,751.000000,,2013-10-05 21:54:00,
2013-10-05 15:04:00,73.0,46.0,-100.00,WSW,246,3.0,5.0,38,0.00,,,0.00,751.000000,,2013-10-05 22:04:00,
2013-10-05 15:12:00,73.0,46.0,-100.00,WSW,246,3.0,5.0,38,0.00,,,0.00,751.000000,,2013-10-05 22:12:00,
2013-10-05 15:13:00,73.0,41.0,-100.00,WNW,282,2.0,5.0,31,0.00,,,0.00,664.000000,,2013-10-05 22:13:00,
2013-10-05 15:42:00,73.0,41.0,-100.00,WNW,282,2.0,5.0,31,0.00,,,0.00,664.000000,,2013-10-05 22:42:00,
2013-10-05 15:53:00,73.0,41.0,-100.00,WNW,282,2.0,5.0,31,0.00,,,0.00,664.000000,,2013-10-05 22:53:00,
2013-10-05 16:02:00,73.0,41.0,-100.00,WNW,282,2.0,5.0,31,0.00,,,0.00,664.000000,,2013-10-05 23:02:00,
2013-10-05 16:43:00,73.0,41.0,-100.00,WSW,256,2.0,4.0,31,0.00,,,0.00,523.000000,,2013-10-05 23:43:00,
2013-10-05 16:53:00,73.0,41.0,-100.00,WSW,256,2.0,4.0,31,0.00,,,0.00,523.000000,,2013-10-05 23:53:00,
2013-10-05 17:02:00,73.0,41.0,-100.00,WSW,256,2.0,4.0,31,0.00,,,0.00,523.000000,,2013-10-06 00:02:00,
2013-10-05 17:12:00,73.0,41.0,-100.00,WSW,256,2.0,4.0,31,0.00,,,0.00,523.000000,,2013-10-06 00:12:00,
2013-10-05 17:43:00,71.0,40.0,-100.00,WNW,282,3.0,4.0,32,0.00,,,0.00,342.000000,,2013-10-06 00:43:00,
2013-10-05 17:52:00,71.0,40.0,-100.00,WNW,282,3.0,4.0,32,0.00,,,0.00,342.000000,,2013-10-06 00:52:00,
2013-10-05 18:02:00,71.0,40.0,-100.00,WNW,282,3.0,4.0,32,0.00,,,0.00,342.000000,,2013-10-06 01:02:00,
2013-10-05 18:11:00,71.0,40.0,-100.00,WNW,282,3.0,4.0,32,0.00,,,0.00,342.000000,,2013-10-06 01:11:00,
2013-10-05 18:42:00,69.0,40.0,-100.00,West,263,2.0,4.0,35,0.00,,,0.00,147.000000,,2013-10-06 01:42:00,
2013-10-05 18:52:00,69.0,40.0,-100.00,West,263,2.0,4.0,35,0.00,,,0.00,147.000000,,2013-10-06 01:52:00,
2013-10-05 19:02:00,69.0,40.0,-100.00,West,263,2.0,4.0,35,0.00,,,0.00,147.000000,,2013-10-06 02:02:00,
2013-10-05 19:11:00,69.0,40.0,-100.00,West,263,2.0,4.0,35,0.00,,,0.00,147.000000,,2013-10-06 02:11:00,
2013-10-05 19:42:00,59.0,37.0,-100.00,ENE,65,2.0,3.0,43,0.00,,,0.00,11.000000,,2013-10-06 02:42:00,
2013-10-05 21:13:00,58.0,39.0,-100.00,ESE,119,1.0,2.0,50,0.00,,,0.00,0.000000,,2013-10-06 04:13:00,
2013-10-05 21:44:00,58.0,39.0,-100.00,ESE,119,1.0,2.0,50,0.00,,,0.00,0.000000,,2013-10-06 04:44:00,
2013-10-05 21:54:00,58.0,39.0,-100.00,ESE,119,1.0,2.0,50,0.00,,,0.00,0.000000,,2013-10-06 04:54:00,
2013-10-05 22:03:00,58.0,39.0,-100.00,ESE,119,1.0,2.0,50,0.00,,,0.00,0.000000,,2013-10-06 05:03:00,
2013-10-05 22:43:00,58.0,40.0,-100.00,SE,135,2.0,4.0,52,0.00,,,0.00,0.000000,,2013-10-06 05:43:00,
2013-10-05 22:52:00,58.0,40.0,-100.00,SE,135,2.0,4.0,52,0.00,,,0.00,0.000000,,2013-10-06 05:52:00,
2013-10-05 23:02:00,58.0,40.0,-100.00,SE,135,2.0,4.0,52,0.00,,,0.00,0.000000,,2013-10-06 06:02:00,
2013-10-05 23:12:00,58.0,40.0,-100.00,SE,135,2.0,4.0,52,0.00,,,0.00,0.000000,,2013-10-06 06:12:00,
2013-10-05 23:42:00,57.0,45.0,-100.00,SE,126,2.0,4.0,63,0.00,,,0.00,0.000000,,2013-10-06 06:42:00,
2013-10-05 23:52:00,57.0,45.0,-100.00,SE,126,2.0,4.0,63,0.00,,,0.00,0.000000,,2013-10-06 06:52:00,